createdAt,value
2023-02-25T00:00:38.036Z,3.40
2023-02-25T00:03:05.876Z,4.37
2023-02-25T00:05:33.641Z,4.50
2023-02-25T00:08:01.327Z,3.37
2023-02-25T00:10:31.357Z,3.87
2023-02-25T00:13:12.209Z,3.30
2023-02-25T00:15:44.913Z,3.83
2023-02-25T00:18:12.564Z,4.87
2023-02-25T00:20:40.947Z,4.30
2023-02-25T00:23:08.658Z,4.00
2023-02-25T00:25:37.770Z,4.60
2023-02-25T00:28:06.479Z,3.23
2023-02-25T00:30:34.680Z,3.80
2023-02-25T00:33:02.565Z,4.00
2023-02-25T00:35:30.236Z,4.87
2023-02-25T00:38:13.801Z,3.63
2023-02-25T00:40:44.758Z,5.27
2023-02-25T00:43:12.474Z,4.27
2023-02-25T00:45:41.014Z,4.30
2023-02-25T00:48:09.163Z,4.33
2023-02-25T00:50:39.654Z,4.00
2023-02-25T00:53:07.448Z,4.40
2023-02-25T00:55:35.191Z,4.93
2023-02-25T00:58:04.472Z,4.87
2023-02-25T01:00:40.528Z,5.13
2023-02-25T01:03:14.316Z,6.10
2023-02-25T01:05:42.400Z,5.57
2023-02-25T01:08:10.957Z,4.23
2023-02-25T01:10:38.660Z,3.90
2023-02-25T01:13:07.703Z,5.17
2023-02-25T01:15:35.502Z,4.87
2023-02-25T01:18:03.268Z,4.87
2023-02-25T01:20:30.971Z,5.20
2023-02-25T01:22:58.674Z,5.80
2023-02-25T01:25:27.075Z,4.73
2023-02-25T01:27:56.109Z,3.93
2023-02-25T01:30:25.237Z,4.27
2023-02-25T01:32:53.372Z,4.37
2023-02-25T01:35:21.117Z,4.63
2023-02-25T01:37:49.884Z,5.17
2023-02-25T01:40:18.445Z,4.23
2023-02-25T01:42:46.896Z,5.10
2023-02-25T01:45:29.240Z,4.70
2023-02-25T01:48:01.323Z,4.40
2023-02-25T01:50:34.033Z,5.03
2023-02-25T01:53:03.775Z,4.30
2023-02-25T01:55:31.764Z,4.47
2023-02-25T01:58:00.388Z,4.43
2023-02-25T02:00:30.835Z,3.07
2023-02-25T02:02:58.951Z,5.27
2023-02-25T02:05:34.542Z,3.60
2023-02-25T02:08:02.298Z,3.60
2023-02-25T02:10:30.040Z,5.00
2023-02-25T02:12:57.760Z,4.47
2023-02-25T02:15:25.591Z,4.77
2023-02-25T02:17:58.181Z,4.80
2023-02-25T02:20:28.088Z,5.70
2023-02-25T02:23:05.983Z,5.23
2023-02-25T02:25:58.086Z,4.57
2023-02-25T02:29:02.187Z,6.10
2023-02-25T02:32:02.600Z,4.50
2023-02-25T02:34:37.710Z,4.93
2023-02-25T02:37:11.260Z,5.30
2023-02-25T02:39:48.529Z,4.50
2023-02-25T02:42:21.256Z,4.80
2023-02-25T02:44:54.973Z,4.23
2023-02-25T02:47:25.304Z,5.40
2023-02-25T02:49:56.889Z,4.40
2023-02-25T02:52:27.116Z,4.50
2023-02-25T02:54:59.536Z,4.23
2023-02-25T02:57:28.449Z,5.40
2023-02-25T02:59:57.953Z,4.80
2023-02-25T03:02:30.204Z,4.40
2023-02-25T03:05:02.301Z,4.13
2023-02-25T03:07:30.637Z,5.23
2023-02-25T03:10:00.481Z,4.90
2023-02-25T03:12:28.260Z,5.27
2023-02-25T03:14:56.065Z,3.93
2023-02-25T03:17:26.568Z,3.83
2023-02-25T03:19:57.851Z,3.90
2023-02-25T03:22:31.141Z,4.47
2023-02-25T03:25:11.363Z,3.40
2023-02-25T03:27:41.303Z,4.40
2023-02-25T03:30:13.095Z,3.80
2023-02-25T03:32:42.550Z,3.97
2023-02-25T03:35:11.008Z,3.80
2023-02-25T03:37:41.068Z,3.83
2023-02-25T03:40:12.248Z,4.13
2023-02-25T03:42:44.525Z,4.00
2023-02-25T03:45:13.867Z,3.30
2023-02-25T03:47:42.142Z,4.20
2023-02-25T03:50:13.109Z,3.87
2023-02-25T03:52:42.303Z,4.37
2023-02-25T03:55:11.593Z,3.63
2023-02-25T03:57:40.869Z,4.37
2023-02-25T04:00:18.112Z,3.47
2023-02-25T04:02:47.970Z,3.37
2023-02-25T04:05:17.968Z,4.00
2023-02-25T04:07:47.311Z,3.90
2023-02-25T04:10:16.644Z,6.60
2023-02-25T04:12:44.422Z,3.80
2023-02-25T04:15:14.105Z,4.00
2023-02-25T04:17:42.056Z,5.53
2023-02-25T04:20:11.171Z,5.20
2023-02-25T04:22:38.850Z,4.47
2023-02-25T04:25:08.869Z,4.57
2023-02-25T04:27:36.482Z,5.30
2023-02-25T04:30:05.220Z,4.57
2023-02-25T04:32:32.980Z,4.47
2023-02-25T04:35:03.126Z,5.80
2023-02-25T04:37:31.022Z,4.43
2023-02-25T04:39:58.858Z,4.20
2023-02-25T04:42:27.973Z,4.63
2023-02-25T04:44:56.105Z,4.50
2023-02-25T04:47:23.836Z,4.00
2023-02-25T04:49:51.549Z,4.83
2023-02-25T04:52:19.423Z,4.93
2023-02-25T04:54:47.175Z,3.83
2023-02-25T04:57:14.963Z,3.40
2023-02-25T04:59:44.030Z,4.37
2023-02-25T05:02:11.770Z,4.67
2023-02-25T05:04:40.431Z,3.70
2023-02-25T05:07:08.830Z,4.47
2023-02-25T05:09:36.580Z,5.20
2023-02-25T05:12:05.019Z,3.53
2023-02-25T05:14:33.587Z,4.87
2023-02-25T05:17:02.620Z,4.20
2023-02-25T05:19:30.296Z,4.93
2023-02-25T05:21:57.980Z,5.43
2023-02-25T05:24:25.611Z,4.80
2023-02-25T05:26:53.833Z,4.67
2023-02-25T05:29:21.605Z,4.37
2023-02-25T05:31:51.618Z,4.20
2023-02-25T05:34:22.751Z,4.30
2023-02-25T05:36:50.477Z,4.50
2023-02-25T05:39:18.185Z,4.03
2023-02-25T05:41:45.920Z,3.37
2023-02-25T05:44:13.634Z,3.70
2023-02-25T05:46:41.449Z,3.40
2023-02-25T05:49:10.199Z,3.83
2023-02-25T05:51:39.215Z,3.73
2023-02-25T05:54:06.942Z,5.23
2023-02-25T05:56:34.669Z,3.67
2023-02-25T05:59:02.344Z,3.80
2023-02-25T06:01:31.503Z,3.30
2023-02-25T06:03:59.485Z,3.33
2023-02-25T06:06:28.488Z,3.03
2023-02-25T06:08:58.108Z,3.37
2023-02-25T06:11:28.247Z,4.17
2023-02-25T06:13:56.676Z,3.77
2023-02-25T06:16:26.523Z,2.87
2023-02-25T06:18:54.405Z,3.47
2023-02-25T06:21:22.109Z,3.27
2023-02-25T06:23:50.795Z,3.77
2023-02-25T06:26:20.426Z,3.03
2023-02-25T06:28:48.720Z,3.93
2023-02-25T06:31:18.598Z,3.30
2023-02-25T06:33:46.779Z,3.40
2023-02-25T06:36:15.550Z,4.40
2023-02-25T06:38:46.108Z,2.53
2023-02-25T06:41:16.615Z,2.27
2023-02-25T06:43:46.341Z,3.03
2023-02-25T06:46:15.899Z,3.63
2023-02-25T06:48:43.594Z,3.60
2023-02-25T06:51:12.931Z,3.00
2023-02-25T06:53:42.024Z,2.90
2023-02-25T06:56:12.581Z,2.30
2023-02-25T06:58:40.548Z,3.53
2023-02-25T07:01:11.190Z,2.90
2023-02-25T07:03:39.029Z,3.40
2023-02-25T07:06:08.829Z,2.70
2023-02-25T07:08:36.844Z,3.27
2023-02-25T07:11:14.933Z,2.67
2023-02-25T07:13:43.823Z,3.50
2023-02-25T07:16:13.457Z,3.00
2023-02-25T07:18:41.408Z,2.97
2023-02-25T07:21:09.254Z,3.10
2023-02-25T07:23:36.956Z,2.47
2023-02-25T07:26:04.968Z,2.20
2023-02-25T07:28:33.033Z,2.63
2023-02-25T07:31:01.637Z,2.40
2023-02-25T07:33:31.408Z,2.60
2023-02-25T07:36:00.055Z,1.90
2023-02-25T07:38:27.775Z,1.40
2023-02-25T07:40:55.816Z,1.33
2023-02-25T07:43:23.582Z,1.47
2023-02-25T07:45:51.578Z,1.40
2023-02-25T07:48:19.457Z,1.47
2023-02-25T07:50:48.471Z,1.80
2023-02-25T07:53:16.253Z,1.20
2023-02-25T07:55:44.720Z,1.07
2023-02-25T07:58:12.489Z,0.90
2023-02-25T08:00:41.010Z,1.33
2023-02-25T08:03:08.861Z,1.50
2023-02-25T08:05:36.857Z,1.20
2023-02-25T08:08:06.721Z,1.10
2023-02-25T08:10:34.442Z,1.80
2023-02-25T08:13:02.205Z,1.90
2023-02-25T08:15:29.867Z,2.73
2023-02-25T08:17:57.688Z,1.10
2023-02-25T08:20:25.529Z,0.87
2023-02-25T08:22:53.189Z,1.20
2023-02-25T08:25:22.209Z,1.10
2023-02-25T08:27:49.937Z,1.40
2023-02-25T08:30:18.375Z,1.40
2023-02-25T08:32:46.207Z,1.33
2023-02-25T08:35:14.441Z,1.40
2023-02-25T08:37:42.121Z,1.50
2023-02-25T08:40:11.196Z,1.40
2023-02-25T08:42:40.275Z,2.27
2023-02-25T08:45:08.476Z,1.43
2023-02-25T08:47:36.186Z,1.60
2023-02-25T08:50:05.472Z,1.40
2023-02-25T08:52:34.584Z,1.60
2023-02-25T08:55:02.641Z,2.00
2023-02-25T08:57:31.178Z,1.43
2023-02-25T09:00:00.293Z,1.20
2023-02-25T09:02:27.997Z,1.40
2023-02-25T09:04:55.769Z,1.43
2023-02-25T09:07:23.590Z,1.93
2023-02-25T09:09:51.277Z,1.50
2023-02-25T09:12:19.001Z,1.77
2023-02-25T09:14:46.744Z,1.40
2023-02-25T09:17:15.806Z,2.20
2023-02-25T09:19:43.791Z,1.73
2023-02-25T09:22:11.832Z,1.37
2023-02-25T09:24:39.545Z,1.87
2023-02-25T09:27:08.232Z,2.57
2023-02-25T09:29:36.246Z,1.87
2023-02-25T09:32:04.244Z,1.40
2023-02-25T09:34:34.218Z,2.20
2023-02-25T09:37:01.947Z,2.20
2023-02-25T09:39:29.575Z,2.20
2023-02-25T09:42:00.786Z,1.70
2023-02-25T09:44:30.694Z,2.30
2023-02-25T09:47:02.709Z,2.40
2023-02-25T09:49:35.117Z,1.67
2023-02-25T09:52:08.158Z,2.00
2023-02-25T09:54:39.511Z,1.90
2023-02-25T09:57:08.559Z,2.07
2023-02-25T09:59:36.312Z,2.30
2023-02-25T10:02:14.793Z,2.40
2023-02-25T10:04:51.521Z,2.67
2023-02-25T10:07:22.429Z,3.03
2023-02-25T10:09:54.977Z,1.87
2023-02-25T10:12:29.993Z,3.20
2023-02-25T10:15:10.005Z,2.20
2023-02-25T10:17:44.445Z,2.23
2023-02-25T10:20:31.489Z,2.50
2023-02-25T10:23:04.366Z,1.83
2023-02-25T10:25:35.045Z,2.10
2023-02-25T10:28:04.998Z,1.80
2023-02-25T10:30:35.859Z,1.50
2023-02-25T10:33:06.642Z,1.97
2023-02-25T10:35:40.129Z,1.60
2023-02-25T10:38:07.981Z,1.87
2023-02-25T10:40:35.803Z,1.73
2023-02-25T10:43:11.746Z,3.50
2023-02-25T10:45:40.853Z,1.60
2023-02-25T10:48:14.400Z,1.80
2023-02-25T10:50:46.136Z,1.10
2023-02-25T10:53:16.875Z,1.20
2023-02-25T10:55:55.047Z,1.37
2023-02-25T10:58:34.558Z,1.73
2023-02-25T11:01:06.432Z,1.43
2023-02-25T11:03:42.161Z,1.60
2023-02-25T11:06:14.483Z,1.97
2023-02-25T11:08:42.539Z,1.53
2023-02-25T11:11:17.058Z,3.90
2023-02-25T11:13:44.934Z,2.97
2023-02-25T11:16:14.203Z,2.13
2023-02-25T11:18:42.747Z,1.40
2023-02-25T11:21:14.461Z,1.67
2023-02-25T11:23:47.260Z,1.40
2023-02-25T11:26:16.430Z,1.20
2023-02-25T11:28:47.744Z,1.43
2023-02-25T11:31:18.940Z,1.90
2023-02-25T11:33:51.611Z,1.27
2023-02-25T11:36:24.926Z,1.67
2023-02-25T11:39:08.241Z,1.83
2023-02-25T11:41:35.966Z,3.10
2023-02-25T11:44:20.116Z,3.30
2023-02-25T11:46:55.261Z,0.97
2023-02-25T11:49:29.439Z,2.07
2023-02-25T11:52:05.564Z,1.20
2023-02-25T11:54:37.732Z,1.10
2023-02-25T11:57:10.636Z,1.17
2023-02-25T11:59:40.363Z,2.13
2023-02-25T12:02:31.353Z,0.90
2023-02-25T12:05:11.604Z,1.10
2023-02-25T12:08:14.001Z,1.50
2023-02-25T12:11:06.249Z,1.47
2023-02-25T12:14:15.833Z,1.23
2023-02-25T12:17:21.713Z,1.50
2023-02-25T12:20:17.805Z,1.67
2023-02-25T12:23:13.060Z,1.23
2023-02-25T12:25:49.900Z,1.10
2023-02-25T12:28:32.642Z,1.17
2023-02-25T12:31:26.238Z,1.13
2023-02-25T12:34:23.153Z,1.10
2023-02-25T12:37:12.259Z,1.10
2023-02-25T12:39:49.019Z,1.30
2023-02-25T12:42:29.070Z,1.00
2023-02-25T12:45:07.089Z,1.50
2023-02-25T12:47:52.778Z,1.57
2023-02-25T12:50:38.362Z,1.73
2023-02-25T12:53:23.358Z,1.40
2023-02-25T12:56:20.721Z,1.40
2023-02-25T12:59:05.988Z,1.10
2023-02-25T13:01:52.253Z,1.17
2023-02-25T13:04:33.041Z,1.43
2023-02-25T13:07:24.327Z,1.27
2023-02-25T13:10:02.347Z,1.30
2023-02-25T13:12:46.125Z,1.10
2023-02-25T13:15:18.246Z,1.00
2023-02-25T13:18:09.706Z,2.00
2023-02-25T13:20:45.066Z,1.20
2023-02-25T13:23:27.171Z,1.23
2023-02-25T13:26:13.992Z,1.00
2023-02-25T13:28:52.224Z,1.00
2023-02-25T13:31:27.210Z,1.53
2023-02-25T13:34:04.702Z,1.60
2023-02-25T13:36:42.851Z,1.83
2023-02-25T13:39:28.632Z,1.40
2023-02-25T13:42:15.794Z,1.40
2023-02-25T13:44:56.008Z,0.77
2023-02-25T13:47:34.138Z,1.20
2023-02-25T13:50:19.600Z,1.00
2023-02-25T13:53:00.379Z,0.73
2023-02-25T13:55:42.662Z,1.47
2023-02-25T13:58:47.756Z,1.50
2023-02-25T14:01:38.590Z,1.37
2023-02-25T14:04:24.682Z,1.83
2023-02-25T14:07:24.708Z,2.70
2023-02-25T14:10:02.688Z,1.40
2023-02-25T14:12:44.254Z,1.23
2023-02-25T14:15:22.844Z,1.00
2023-02-25T14:18:03.841Z,1.17
2023-02-25T14:20:40.913Z,1.87
2023-02-25T14:23:14.092Z,1.30
2023-02-25T14:26:03.337Z,0.83
2023-02-25T14:28:36.773Z,1.07
2023-02-25T14:31:14.225Z,1.13
2023-02-25T14:33:56.703Z,1.33
2023-02-25T14:36:43.552Z,2.07
2023-02-25T14:39:27.561Z,1.10
2023-02-25T14:42:05.748Z,1.03
2023-02-25T14:44:36.817Z,2.50
2023-02-25T14:47:09.375Z,1.67
2023-02-25T14:49:42.489Z,1.57
2023-02-25T14:52:25.949Z,1.23
2023-02-25T14:55:30.731Z,0.80
2023-02-25T14:58:26.916Z,1.57
2023-02-25T15:01:18.072Z,1.10
2023-02-25T15:04:05.108Z,1.10
2023-02-25T15:06:57.133Z,1.40
2023-02-25T15:10:00.230Z,1.13
2023-02-25T15:12:33.666Z,1.43
2023-02-25T15:15:25.931Z,2.10
2023-02-25T15:18:23.410Z,1.53
2023-02-25T15:20:51.982Z,1.43
2023-02-25T15:23:20.872Z,1.03
2023-02-25T15:25:53.753Z,1.53
2023-02-25T15:28:42.331Z,1.90
2023-02-25T15:31:30.020Z,0.90
2023-02-25T15:34:29.822Z,1.33
2023-02-25T15:37:19.928Z,1.53
2023-02-25T15:39:49.947Z,1.50
2023-02-25T15:42:40.357Z,1.30
2023-02-25T15:45:42.358Z,1.60
2023-02-25T15:48:34.676Z,1.37
2023-02-25T15:51:06.392Z,0.90
2023-02-25T15:53:46.129Z,2.23
2023-02-25T15:56:48.326Z,1.63
2023-02-25T15:59:43.149Z,1.37
2023-02-25T16:02:34.688Z,1.53
2023-02-25T16:05:03.141Z,1.10
2023-02-25T16:07:33.185Z,1.00
2023-02-25T16:10:04.959Z,1.60
2023-02-25T16:12:32.816Z,2.00
2023-02-25T16:15:02.356Z,1.57
2023-02-25T16:17:31.740Z,1.57
2023-02-25T16:20:01.440Z,1.00
2023-02-25T16:22:30.106Z,1.50
2023-02-25T16:25:01.694Z,1.90
2023-02-25T16:27:43.122Z,3.20
2023-02-25T16:30:17.244Z,1.50
2023-02-25T16:32:53.186Z,3.00
2023-02-25T16:35:26.021Z,1.30
2023-02-25T16:37:59.445Z,1.17
2023-02-25T16:40:30.190Z,2.53
2023-02-25T16:42:59.426Z,1.77
2023-02-25T16:45:31.324Z,3.63
2023-02-25T16:48:01.279Z,2.30
2023-02-25T16:50:30.933Z,2.40
2023-02-25T16:52:58.893Z,2.70
2023-02-25T16:55:31.667Z,1.80
2023-02-25T16:58:21.466Z,2.43
2023-02-25T17:00:55.280Z,2.77
2023-02-25T17:03:24.622Z,2.43
2023-02-25T17:06:04.533Z,2.10
2023-02-25T17:08:32.297Z,2.47
2023-02-25T17:11:01.064Z,2.43
2023-02-25T17:13:30.865Z,2.30
2023-02-25T17:16:00.771Z,4.63
2023-02-25T17:18:32.567Z,3.57
2023-02-25T17:21:03.347Z,2.53
2023-02-25T17:23:31.227Z,1.83
2023-02-25T17:25:59.840Z,2.30
2023-02-25T17:28:29.812Z,2.43
2023-02-25T17:31:09.032Z,3.00
2023-02-25T17:33:37.474Z,2.20
2023-02-25T17:36:09.720Z,4.13
2023-02-25T17:38:39.154Z,3.23
2023-02-25T17:41:07.192Z,2.20
2023-02-25T17:43:36.445Z,2.27
2023-02-25T17:46:16.655Z,2.53
2023-02-25T17:48:45.729Z,2.20
2023-02-25T17:51:13.816Z,1.93
2023-02-25T17:53:47.189Z,2.37
2023-02-25T17:56:24.661Z,1.97
2023-02-25T17:58:53.256Z,2.20
2023-02-25T18:01:30.896Z,1.63
2023-02-25T18:04:00.858Z,2.00
2023-02-25T18:06:32.506Z,1.87
2023-02-25T18:09:02.677Z,1.93
2023-02-25T18:11:32.970Z,2.43
2023-02-25T18:14:02.299Z,1.63
2023-02-25T18:16:42.731Z,1.20
2023-02-25T18:19:19.847Z,1.00
2023-02-25T18:21:47.512Z,1.53
2023-02-25T18:24:24.021Z,1.23
2023-02-25T18:27:06.909Z,1.93
2023-02-25T18:29:34.986Z,3.73
2023-02-25T18:32:05.299Z,2.27
2023-02-25T18:34:33.178Z,1.73
2023-02-25T18:37:00.963Z,1.93
2023-02-25T18:39:28.669Z,1.93
2023-02-25T18:41:56.840Z,2.33
2023-02-25T18:44:24.927Z,2.63
2023-02-25T18:46:52.645Z,1.77
2023-02-25T18:49:21.698Z,2.10
2023-02-25T18:51:49.951Z,2.30
2023-02-25T18:54:18.189Z,2.27
2023-02-25T18:56:45.861Z,3.57
2023-02-25T18:59:13.578Z,2.27
2023-02-25T19:01:41.543Z,1.70
2023-02-25T19:04:14.315Z,1.60
2023-02-25T19:06:43.404Z,2.40
2023-02-25T19:09:11.476Z,1.70
2023-02-25T19:11:39.386Z,1.37
2023-02-25T19:14:08.281Z,1.97
2023-02-25T19:16:36.111Z,1.93
2023-02-25T19:19:04.146Z,2.50
2023-02-25T19:21:32.082Z,2.47
2023-02-25T19:24:01.336Z,2.00
2023-02-25T19:26:29.086Z,2.33
2023-02-25T19:28:56.774Z,1.97
2023-02-25T19:31:24.496Z,2.17
2023-02-25T19:33:52.238Z,1.67
2023-02-25T19:36:19.943Z,2.73
2023-02-25T19:38:47.677Z,2.53
2023-02-25T19:41:16.795Z,3.77
2023-02-25T19:43:44.497Z,6.47
2023-02-25T19:46:12.276Z,2.83
2023-02-25T19:48:39.985Z,2.23
2023-02-25T19:51:08.550Z,2.20
2023-02-25T19:53:36.506Z,5.20
2023-02-25T19:56:05.380Z,5.23
2023-02-25T19:58:34.793Z,4.93
2023-02-25T20:01:04.276Z,5.77
2023-02-25T20:03:32.097Z,2.63
2023-02-25T20:06:05.473Z,1.77
2023-02-25T20:08:33.237Z,2.83
2023-02-25T20:11:00.894Z,2.10
2023-02-25T20:13:28.645Z,2.60
2023-02-25T20:16:02.204Z,2.17
2023-02-25T20:18:30.032Z,2.60
2023-02-25T20:20:57.690Z,2.50
2023-02-25T20:23:25.419Z,3.10
2023-02-25T20:25:53.115Z,2.43
2023-02-25T20:28:22.639Z,2.43
2023-02-25T20:30:50.355Z,2.90
2023-02-25T20:33:19.481Z,2.73
2023-02-25T20:35:47.354Z,2.13
2023-02-25T20:38:19.317Z,2.70
2023-02-25T20:40:47.198Z,4.60
2023-02-25T20:43:16.364Z,3.90
2023-02-25T20:45:45.252Z,3.97
2023-02-25T20:48:27.288Z,3.17
2023-02-25T20:50:55.499Z,3.40
2023-02-25T20:53:23.552Z,4.40
2023-02-25T20:55:51.698Z,5.40
2023-02-25T20:58:19.738Z,3.80
2023-02-25T21:00:47.516Z,3.13
2023-02-25T21:03:15.273Z,3.37
2023-02-25T21:05:44.315Z,2.83
2023-02-25T21:08:12.030Z,1.57
2023-02-25T21:10:39.771Z,2.70
2023-02-25T21:13:07.483Z,2.93
2023-02-25T21:15:36.565Z,2.27
2023-02-25T21:18:04.909Z,2.50
2023-02-25T21:20:32.622Z,4.27
2023-02-25T21:23:01.864Z,2.20
2023-02-25T21:25:29.623Z,1.80
2023-02-25T21:27:57.334Z,1.60
2023-02-25T21:30:25.137Z,0.90
2023-02-25T21:32:52.911Z,1.10
2023-02-25T21:35:25.147Z,1.10
2023-02-25T21:37:52.885Z,1.67
2023-02-25T21:40:22.208Z,1.23
2023-02-25T21:42:50.713Z,1.00
2023-02-25T21:45:18.732Z,1.20
2023-02-25T21:47:46.472Z,1.40
2023-02-25T21:50:14.204Z,1.57
2023-02-25T21:52:41.868Z,3.10
2023-02-25T21:55:10.789Z,3.60
2023-02-25T21:57:39.874Z,2.80
2023-02-25T22:00:11.411Z,1.67
2023-02-25T22:02:39.084Z,2.20
2023-02-25T22:05:07.706Z,1.83
2023-02-25T22:07:35.464Z,2.00
2023-02-25T22:10:03.222Z,2.77
2023-02-25T22:12:30.924Z,1.90
2023-02-25T22:15:00.057Z,1.63
2023-02-25T22:17:28.632Z,2.10
2023-02-25T22:19:56.363Z,2.13
2023-02-25T22:22:24.108Z,2.10
2023-02-25T22:24:51.786Z,2.10
2023-02-25T22:27:19.444Z,3.50
2023-02-25T22:29:47.153Z,2.63
2023-02-25T22:32:16.571Z,2.50
2023-02-25T22:34:44.475Z,1.83
2023-02-25T22:37:12.127Z,1.80
2023-02-25T22:39:39.779Z,2.00
2023-02-25T22:42:07.545Z,2.47
2023-02-25T22:44:35.262Z,2.50
2023-02-25T22:47:02.979Z,2.87
2023-02-25T22:49:32.074Z,3.27
2023-02-25T22:51:59.782Z,2.77
2023-02-25T22:54:27.621Z,2.07
2023-02-25T22:56:55.376Z,1.90
2023-02-25T22:59:23.025Z,1.70
2023-02-25T23:01:50.753Z,1.70
2023-02-25T23:04:18.473Z,1.87
2023-02-25T23:06:47.841Z,1.33
2023-02-25T23:09:16.109Z,1.47
2023-02-25T23:11:44.928Z,1.60
2023-02-25T23:14:14.267Z,1.80
2023-02-25T23:16:44.662Z,1.70
2023-02-25T23:19:15.538Z,1.80
2023-02-25T23:21:43.543Z,1.70
2023-02-25T23:24:16.206Z,2.10
2023-02-25T23:26:44.745Z,1.67
2023-02-25T23:29:13.346Z,1.63
2023-02-25T23:31:44.388Z,1.80
2023-02-25T23:34:14.105Z,1.80
2023-02-25T23:36:43.594Z,1.63
2023-02-25T23:39:15.040Z,2.20
2023-02-25T23:41:43.377Z,2.83
2023-02-25T23:44:12.262Z,2.27
2023-02-25T23:46:42.709Z,2.00
2023-02-25T23:49:12.092Z,1.60
2023-02-25T23:51:42.616Z,2.23
2023-02-25T23:54:14.865Z,1.90
2023-02-25T23:56:42.598Z,4.43
2023-02-25T23:59:10.519Z,5.87
